Time;durP1;ratioP1;P1;durP2;ratioP2;P2;SDS_P1;SDS_P2;PMS_P1;PMS_P2;Temp;Humidity;BMP_temperature;BMP_pressure;BME280_temperature;BME280_humidity;BME280_pressure;Samples;Min_cycle;Max_cycle;Signal;HPM_P1;HPM_P2
2021/07/07 00:00:04;;;;;;;0.50;0.38;;;25.10;46.10;;;;;;5024480;28;20102;-63
2021/07/07 00:02:30;;;;;;;0.73;0.40;;;25.10;45.50;;;;;;4994947;28;20113;-61
2021/07/07 00:04:56;;;;;;;0.63;0.30;;;25.10;45.50;;;;;;5007227;28;20042;-60
2021/07/07 00:07:21;;;;;;;0.85;0.30;;;25.10;45.50;;;;;;5014086;28;20030;-62
2021/07/07 00:09:47;;;;;;;0.77;0.40;;;25.10;46.10;;;;;;5022532;28;20429;-61
2021/07/07 00:12:13;;;;;;;0.98;0.50;;;25.10;45.50;;;;;;5027692;28;20084;-62
2021/07/07 00:14:39;;;;;;;0.60;0.40;;;25.10;45.60;;;;;;5033447;28;20033;-62
2021/07/07 00:17:05;;;;;;;0.35;0.30;;;25.10;45.60;;;;;;5028994;28;20093;-61
2021/07/07 00:19:31;;;;;;;0.73;0.32;;;25.10;45.60;;;;;;5018549;28;20029;-62
2021/07/07 00:21:59;;;;;;;0.95;0.32;;;25.00;45.50;;;;;;5033318;28;20022;-57
2021/07/07 00:24:26;;;;;;;0.65;0.30;;;25.00;45.50;;;;;;5033292;28;20040;-60
2021/07/07 00:26:52;;;;;;;0.32;0.30;;;25.00;45.60;;;;;;5032172;28;20092;-62
2021/07/07 00:29:18;;;;;;;1.10;0.50;;;25.00;45.60;;;;;;5032779;28;20119;-61
2021/07/07 00:31:44;;;;;;;0.50;0.30;;;25.00;45.60;;;;;;5027275;28;20503;-61
2021/07/07 00:34:10;;;;;;;0.80;0.47;;;25.00;45.60;;;;;;5034317;28;20061;-61
2021/07/07 00:36:36;;;;;;;0.65;0.30;;;25.00;45.60;;;;;;5021307;28;20108;-61
2021/07/07 00:39:03;;;;;;;0.70;0.40;;;25.00;45.60;;;;;;5021395;28;20048;-59
2021/07/07 00:41:29;;;;;;;0.60;0.38;;;25.00;45.60;;;;;;5027655;28;20073;-61
2021/07/07 00:43:55;;;;;;;0.77;0.50;;;25.00;45.60;;;;;;5021076;28;20034;-62
2021/07/07 00:46:21;;;;;;;1.70;0.50;;;25.00;45.60;;;;;;5024111;28;20030;-62
2021/07/07 00:48:48;;;;;;;0.60;0.30;;;25.00;45.60;;;;;;5026344;28;20065;-60
2021/07/07 00:51:15;;;;;;;0.70;0.38;;;25.00;45.60;;;;;;5014750;28;20359;-61
2021/07/07 00:53:42;;;;;;;0.70;0.43;;;25.00;45.60;;;;;;5033317;28;20126;-60
2021/07/07 00:56:09;;;;;;;0.55;0.30;;;25.00;45.60;;;;;;5031895;28;20026;-61
2021/07/07 00:58:36;;;;;;;0.20;0.20;;;25.00;45.70;;;;;;5029556;28;20038;-62
2021/07/07 01:01:04;;;;;;;1.02;0.30;;;24.90;45.70;;;;;;5014216;28;20441;-61
2021/07/07 01:03:30;;;;;;;0.45;0.30;;;24.90;45.70;;;;;;5028831;28;20108;-62
2021/07/07 01:05:56;;;;;;;1.85;0.40;;;24.90;45.70;;;;;;5019627;28;20100;-61
2021/07/07 01:08:21;;;;;;;1.00;0.38;;;24.90;45.70;;;;;;5013995;28;20030;-60
2021/07/07 01:10:47;;;;;;;0.40;0.30;;;25.00;45.80;;;;;;5027537;28;20025;-63
2021/07/07 01:13:13;;;;;;;2.53;0.47;;;24.90;45.70;;;;;;5016968;28;20064;-58
2021/07/07 01:15:42;;;;;;;0.52;0.32;;;24.90;45.80;;;;;;5017745;28;20034;-61
2021/07/07 01:18:09;;;;;;;0.43;0.20;;;24.90;45.80;;;;;;5017454;28;20054;-60
2021/07/07 01:20:35;;;;;;;0.90;0.50;;;24.90;45.80;;;;;;5021109;28;20064;-59
2021/07/07 01:23:03;;;;;;;1.00;0.40;;;24.90;45.80;;;;;;5036524;28;20043;-60
2021/07/07 01:25:29;;;;;;;1.50;0.30;;;24.90;45.90;;;;;;5034134;28;20373;-60
2021/07/07 01:27:57;;;;;;;0.40;0.30;;;24.90;45.80;;;;;;5018522;28;20446;-60
2021/07/07 01:30:23;;;;;;;0.77;0.40;;;24.90;45.80;;;;;;5015763;28;20040;-61
2021/07/07 01:32:51;;;;;;;0.55;0.30;;;24.80;45.80;;;;;;5016722;28;20045;-63
2021/07/07 01:35:18;;;;;;;0.55;0.30;;;24.80;45.80;;;;;;5019659;28;20353;-61
2021/07/07 01:37:45;;;;;;;0.40;0.20;;;24.80;45.80;;;;;;5001367;28;20057;-61
2021/07/07 01:40:15;;;;;;;0.50;0.20;;;24.80;45.80;;;;;;5031397;28;20034;-61
2021/07/07 01:42:41;;;;;;;0.60;0.30;;;24.80;45.80;;;;;;5036773;28;20048;-61
2021/07/07 01:45:09;;;;;;;0.88;0.40;;;24.80;45.90;;;;;;5033488;28;20429;-61
2021/07/07 01:47:35;;;;;;;0.88;0.52;;;24.80;45.90;;;;;;5028161;28;20033;-60
2021/07/07 01:50:01;;;;;;;0.35;0.30;;;24.80;45.90;;;;;;5021052;28;20025;-60
2021/07/07 01:52:27;;;;;;;0.63;0.30;;;24.70;45.90;;;;;;5016271;28;20374;-63
2021/07/07 01:54:53;;;;;;;0.20;0.20;;;24.70;45.90;;;;;;5027568;28;20025;-62
2021/07/07 01:57:19;;;;;;;0.43;0.30;;;24.70;45.90;;;;;;5031792;28;20040;-61
2021/07/07 01:59:45;;;;;;;1.70;0.50;;;24.70;45.90;;;;;;5027803;28;20029;-60
2021/07/07 02:02:11;;;;;;;0.55;0.30;;;24.70;45.90;;;;;;5034317;28;20076;-61
2021/07/07 02:04:37;;;;;;;0.65;0.30;;;24.70;46.60;;;;;;5035486;28;20030;-60
2021/07/07 02:07:03;;;;;;;1.00;0.45;;;24.70;46.00;;;;;;5023452;28;20034;-62
2021/07/07 02:09:29;;;;;;;0.93;0.70;;;24.70;46.00;;;;;;5020310;28;20029;-61
2021/07/07 02:11:54;;;;;;;0.60;0.30;;;24.70;46.00;;;;;;5035264;28;20033;-60
2021/07/07 02:14:21;;;;;;;0.35;0.30;;;24.70;46.00;;;;;;5034718;28;20322;-63
2021/07/07 02:16:46;;;;;;;1.00;0.50;;;24.70;46.00;;;;;;5035921;28;20116;-62
2021/07/07 02:19:13;;;;;;;0.95;0.40;;;24.70;46.10;;;;;;5016487;28;20116;-61
2021/07/07 02:21:39;;;;;;;0.88;0.28;;;24.70;46.10;;;;;;5007551;28;20482;-60
2021/07/07 02:24:06;;;;;;;0.30;0.30;;;24.70;46.10;;;;;;5014430;28;20084;-63
2021/07/07 02:26:32;;;;;;;0.57;0.40;;;24.70;46.10;;;;;;5015764;28;20045;-62
2021/07/07 02:28:58;;;;;;;1.52;0.50;;;24.70;46.10;;;;;;5031612;28;20052;-61
2021/07/07 02:31:24;;;;;;;0.63;0.40;;;24.70;46.10;;;;;;5035927;28;20037;-61
2021/07/07 02:33:50;;;;;;;1.08;0.32;;;24.70;46.10;;;;;;5025349;28;20025;-61
2021/07/07 02:36:16;;;;;;;0.43;0.30;;;24.70;46.10;;;;;;5019222;28;20342;-61
2021/07/07 02:38:42;;;;;;;0.45;0.30;;;24.70;46.10;;;;;;4999703;28;20069;-61
2021/07/07 02:41:08;;;;;;;1.05;0.50;;;24.60;46.10;;;;;;5022504;28;20351;-63
2021/07/07 02:43:34;;;;;;;0.32;0.30;;;24.60;46.20;;;;;;5035395;28;20108;-62
2021/07/07 02:46:00;;;;;;;0.70;0.40;;;24.60;46.10;;;;;;5030303;28;20129;-62
2021/07/07 02:48:26;;;;;;;0.55;0.28;;;24.60;46.20;;;;;;5032322;28;20199;-62
2021/07/07 02:50:52;;;;;;;0.77;0.30;;;24.60;46.10;;;;;;5021402;28;20390;-62
2021/07/07 02:53:19;;;;;;;0.77;0.40;;;24.70;46.20;;;;;;5017963;28;20033;-62
2021/07/07 02:55:45;;;;;;;0.52;0.30;;;24.60;46.10;;;;;;5015336;28;20042;-62
2021/07/07 02:58:11;;;;;;;0.47;0.32;;;24.60;46.10;;;;;;5017833;28;20059;-63
2021/07/07 03:00:43;;;;;;;0.75;0.30;;;24.60;46.10;;;;;;5034081;28;20037;-61
2021/07/07 03:03:16;;;;;;;0.40;0.30;;;24.60;46.10;;;;;;5033767;28;20345;-61
2021/07/07 03:05:50;;;;;;;0.80;0.30;;;24.60;46.00;;;;;;5024665;28;20045;-61
2021/07/07 03:08:17;;;;;;;0.47;0.38;;;24.60;46.00;;;;;;5027808;28;20345;-61
2021/07/07 03:10:44;;;;;;;0.65;0.20;;;24.60;46.10;;;;;;5021133;28;20112;-61
2021/07/07 03:13:10;;;;;;;0.60;0.43;;;24.60;46.10;;;;;;5015183;28;20137;-62
2021/07/07 03:15:38;;;;;;;0.50;0.30;;;24.50;46.10;;;;;;5017931;28;20030;-61
2021/07/07 03:18:08;;;;;;;0.38;0.20;;;24.60;46.20;;;;;;5026265;28;20032;-61
2021/07/07 03:20:35;;;;;;;1.02;0.43;;;24.60;46.10;;;;;;5034072;28;20033;-61
2021/07/07 03:23:02;;;;;;;0.40;0.30;;;24.50;46.10;;;;;;5024019;28;20029;-62
2021/07/07 03:25:29;;;;;;;0.20;0.20;;;24.50;46.10;;;;;;5013869;28;20056;-62
2021/07/07 03:27:55;;;;;;;1.15;0.43;;;24.60;46.10;;;;;;5027595;28;20056;-60
2021/07/07 03:30:21;;;;;;;0.50;0.38;;;24.60;46.10;;;;;;5020302;28;20061;-61
2021/07/07 03:32:47;;;;;;;0.75;0.52;;;24.60;46.10;;;;;;5014559;28;20037;-61
2021/07/07 03:35:13;;;;;;;0.45;0.30;;;24.60;46.00;;;;;;5028618;28;20104;-61
2021/07/07 03:37:40;;;;;;;0.50;0.30;;;24.60;46.00;;;;;;5025686;28;20084;-63
2021/07/07 03:40:07;;;;;;;0.65;0.30;;;24.60;46.10;;;;;;5033237;28;20033;-61
2021/07/07 03:42:33;;;;;;;0.43;0.30;;;24.50;46.00;;;;;;5034259;28;20384;-61
2021/07/07 03:44:59;;;;;;;0.82;0.40;;;24.50;46.00;;;;;;5029456;28;20075;-62
2021/07/07 03:47:25;;;;;;;0.50;0.35;;;24.50;46.00;;;;;;5032744;28;20064;-61
2021/07/07 03:49:51;;;;;;;0.30;0.20;;;24.50;46.00;;;;;;5015904;28;20041;-62
2021/07/07 03:52:18;;;;;;;0.47;0.30;;;24.50;46.00;;;;;;5029944;28;20022;-61
2021/07/07 03:54:44;;;;;;;0.65;0.30;;;24.50;46.00;;;;;;5029063;28;20025;-60
2021/07/07 03:57:10;;;;;;;0.75;0.25;;;24.50;46.00;;;;;;5015679;28;20029;-61
2021/07/07 03:59:36;;;;;;;0.82;0.30;;;24.50;46.00;;;;;;5016941;28;20476;-61
2021/07/07 04:02:02;;;;;;;0.63;0.30;;;24.50;46.00;;;;;;5016267;28;20030;-61
2021/07/07 04:04:28;;;;;;;0.35;0.30;;;24.50;46.10;;;;;;5033101;28;20124;-62
2021/07/07 04:06:58;;;;;;;0.25;0.20;;;24.50;46.10;;;;;;5023932;28;20450;-64
2021/07/07 04:09:28;;;;;;;1.05;0.20;;;24.50;46.10;;;;;;5032870;28;20099;-62
2021/07/07 04:11:57;;;;;;;0.22;0.20;;;24.50;46.10;;;;;;5032169;28;20437;-61
2021/07/07 04:14:24;;;;;;;0.73;0.50;;;24.50;46.20;;;;;;4994586;28;20042;-61
2021/07/07 04:16:52;;;;;;;0.50;0.35;;;24.50;46.20;;;;;;4996879;28;20045;-60
2021/07/07 04:19:19;;;;;;;0.40;0.40;;;24.50;46.30;;;;;;5010700;28;20121;-63
2021/07/07 04:21:46;;;;;;;1.25;0.60;;;24.50;46.30;;;;;;5015192;28;20046;-61
2021/07/07 04:24:13;;;;;;;0.63;0.30;;;24.50;46.30;;;;;;5026595;28;20042;-61
2021/07/07 04:26:39;;;;;;;0.52;0.32;;;24.40;46.30;;;;;;5014152;28;20054;-63
2021/07/07 04:29:06;;;;;;;0.90;0.40;;;24.50;46.40;;;;;;5014429;28;20335;-61
2021/07/07 04:31:34;;;;;;;0.95;0.30;;;24.50;46.40;;;;;;5026538;28;20429;-59
2021/07/07 04:34:02;;;;;;;0.57;0.32;;;24.50;46.40;;;;;;5032974;28;20052;-61
2021/07/07 04:36:29;;;;;;;0.35;0.30;;;24.50;46.40;;;;;;5017628;28;20464;-62
2021/07/07 04:38:55;;;;;;;0.70;0.30;;;24.40;46.40;;;;;;4993478;28;20027;-62
2021/07/07 04:41:21;;;;;;;1.00;0.25;;;24.50;46.50;;;;;;5032126;28;20103;-62
2021/07/07 04:43:47;;;;;;;1.23;0.45;;;24.50;46.50;;;;;;5033117;28;20611;-61
2021/07/07 04:46:13;;;;;;;1.67;0.32;;;24.50;46.50;;;;;;5028711;28;20034;-63
2021/07/07 04:48:39;;;;;;;0.35;0.35;;;24.50;47.10;;;;;;5017872;28;20030;-63
2021/07/07 04:51:04;;;;;;;0.40;0.30;;;24.50;46.50;;;;;;5021819;28;20064;-62
2021/07/07 04:53:30;;;;;;;0.80;0.40;;;24.50;46.50;;;;;;5015951;28;20037;-61
2021/07/07 04:55:56;;;;;;;0.52;0.30;;;24.50;46.60;;;;;;5019002;28;20040;-62
2021/07/07 04:58:25;;;;;;;0.60;0.30;;;24.50;46.60;;;;;;5023080;28;20018;-62
2021/07/07 05:00:52;;;;;;;0.80;0.32;;;24.50;47.30;;;;;;5018120;28;20044;-63
2021/07/07 05:03:18;;;;;;;0.43;0.30;;;24.50;46.70;;;;;;5017580;28;20434;-61
2021/07/07 05:05:44;;;;;;;0.45;0.30;;;24.50;46.70;;;;;;5008603;28;20521;-62
2021/07/07 05:08:10;;;;;;;0.95;0.50;;;24.50;46.70;;;;;;5021203;28;20053;-61
2021/07/07 05:10:38;;;;;;;0.93;0.50;;;24.50;46.70;;;;;;5016061;28;20030;-63
2021/07/07 05:13:05;;;;;;;0.63;0.40;;;24.50;46.80;;;;;;5022716;28;20022;-62
2021/07/07 05:15:32;;;;;;;0.57;0.40;;;24.50;46.80;;;;;;5036987;28;20034;-63
2021/07/07 05:17:58;;;;;;;0.75;0.50;;;24.50;46.80;;;;;;5035814;28;20372;-61
2021/07/07 05:20:23;;;;;;;1.50;0.47;;;24.50;46.80;;;;;;5036706;28;20087;-62
2021/07/07 05:22:49;;;;;;;1.23;0.70;;;24.50;46.80;;;;;;5033905;28;20353;-61
2021/07/07 05:25:17;;;;;;;1.27;0.60;;;24.50;46.80;;;;;;4998923;28;20510;-61
2021/07/07 05:27:44;;;;;;;1.08;0.60;;;24.50;46.80;;;;;;5000353;28;20466;-60
2021/07/07 05:30:12;;;;;;;1.50;0.68;;;24.50;46.90;;;;;;5034106;28;20037;-61
2021/07/07 05:32:38;;;;;;;0.95;0.50;;;24.50;46.80;;;;;;5019033;28;20065;-62
2021/07/07 05:35:06;;;;;;;1.88;0.70;;;24.50;46.80;;;;;;5029876;28;20044;-62
2021/07/07 05:37:33;;;;;;;0.60;0.38;;;24.50;46.90;;;;;;5016458;28;20048;-62
2021/07/07 05:39:59;;;;;;;1.40;0.40;;;24.50;46.80;;;;;;5032709;28;20047;-59
2021/07/07 05:42:25;;;;;;;2.28;0.68;;;24.60;46.90;;;;;;5032942;28;20025;-60
2021/07/07 05:44:52;;;;;;;0.93;0.50;;;24.50;46.80;;;;;;5020755;28;20075;-61
2021/07/07 05:47:19;;;;;;;0.60;0.32;;;24.50;46.80;;;;;;5017690;28;20097;-61
2021/07/07 05:49:45;;;;;;;0.93;0.50;;;24.60;47.00;;;;;;5018843;28;20029;-60
2021/07/07 05:52:12;;;;;;;0.50;0.40;;;24.50;47.00;;;;;;5022061;28;20112;-61
2021/07/07 05:54:38;;;;;;;0.45;0.30;;;24.50;46.90;;;;;;5017452;28;20118;-61
2021/07/07 05:57:05;;;;;;;0.65;0.43;;;24.50;47.00;;;;;;5015260;28;20484;-62
2021/07/07 05:59:31;;;;;;;2.00;0.50;;;24.60;47.00;;;;;;5016798;28;20036;-62
2021/07/07 06:01:57;;;;;;;1.63;0.65;;;24.60;47.00;;;;;;5035275;28;20038;-63
2021/07/07 06:04:23;;;;;;;1.88;0.55;;;24.60;47.00;;;;;;5033877;28;20033;-61
2021/07/07 06:06:49;;;;;;;1.40;0.57;;;24.60;47.00;;;;;;5023031;28;20026;-64
2021/07/07 06:09:14;;;;;;;1.33;0.47;;;24.60;47.00;;;;;;5034857;28;20365;-62
2021/07/07 06:11:40;;;;;;;1.23;0.60;;;24.50;47.00;;;;;;5035103;28;20420;-61
2021/07/07 06:14:06;;;;;;;0.80;0.50;;;24.60;47.00;;;;;;5035104;28;20355;-63
2021/07/07 06:16:32;;;;;;;1.05;0.50;;;24.60;47.00;;;;;;5034781;28;20042;-62
2021/07/07 06:18:59;;;;;;;1.48;0.50;;;24.50;47.00;;;;;;5021285;28;20418;-62
2021/07/07 06:21:25;;;;;;;0.57;0.40;;;24.50;47.00;;;;;;5027995;28;20041;-62
2021/07/07 06:23:51;;;;;;;0.77;0.50;;;24.60;47.10;;;;;;5025189;28;20113;-63
2021/07/07 06:26:17;;;;;;;0.95;0.60;;;24.60;47.00;;;;;;5017855;28;20101;-62
2021/07/07 06:28:42;;;;;;;0.70;0.47;;;24.60;47.10;;;;;;5016025;28;20049;-63
2021/07/07 06:31:08;;;;;;;1.05;0.60;;;24.60;47.10;;;;;;5022871;28;20112;-61
2021/07/07 06:33:34;;;;;;;1.92;0.65;;;24.60;47.00;;;;;;5032978;28;20357;-61
2021/07/07 06:36:00;;;;;;;1.10;0.63;;;24.60;47.10;;;;;;5034827;28;20034;-62
2021/07/07 06:38:26;;;;;;;1.70;0.60;;;24.60;47.10;;;;;;5022168;28;20072;-62
2021/07/07 06:40:52;;;;;;;1.35;0.60;;;24.60;47.10;;;;;;5027186;28;20412;-63
2021/07/07 06:43:18;;;;;;;1.05;0.50;;;24.60;47.10;;;;;;5018329;28;20385;-60
2021/07/07 06:45:44;;;;;;;0.73;0.50;;;24.60;47.10;;;;;;5019555;28;20052;-62
2021/07/07 06:48:11;;;;;;;1.35;0.75;;;24.60;47.20;;;;;;5009862;28;20030;-62
2021/07/07 06:50:38;;;;;;;2.05;1.00;;;24.60;47.20;;;;;;5006730;28;20036;-60
2021/07/07 06:53:04;;;;;;;2.80;1.38;;;24.60;47.20;;;;;;5034679;28;20341;-62
2021/07/07 06:55:30;;;;;;;3.15;1.55;;;24.60;47.20;;;;;;5034437;28;20075;-63
2021/07/07 06:57:57;;;;;;;4.95;2.20;;;24.60;47.30;;;;;;5034787;28;20608;-62
2021/07/07 07:00:24;;;;;;;3.42;1.60;;;24.60;47.30;;;;;;5032964;28;20042;-63
2021/07/07 07:02:51;;;;;;;3.42;1.80;;;24.60;47.30;;;;;;5016554;28;20034;-64
2021/07/07 07:05:18;;;;;;;4.68;2.25;;;24.60;47.30;;;;;;5014607;28;20068;-61
2021/07/07 07:07:45;;;;;;;3.50;2.00;;;24.60;47.30;;;;;;5020810;28;20029;-62
2021/07/07 07:10:13;;;;;;;3.22;1.60;;;24.60;47.30;;;;;;5033927;28;20180;-61
2021/07/07 07:12:40;;;;;;;2.13;1.55;;;24.60;47.30;;;;;;5012703;28;20053;-62
2021/07/07 07:15:09;;;;;;;2.05;1.38;;;24.70;47.30;;;;;;5006642;28;20034;-61
2021/07/07 07:17:35;;;;;;;2.17;1.27;;;24.70;47.40;;;;;;4995747;28;20133;-61
2021/07/07 07:20:02;;;;;;;2.88;1.40;;;24.70;47.40;;;;;;5012437;28;20069;-59
2021/07/07 07:22:28;;;;;;;2.22;1.48;;;24.60;47.30;;;;;;5001176;28;20038;-64
2021/07/07 07:24:55;;;;;;;2.15;1.38;;;24.70;47.40;;;;;;5010606;28;20056;-60
2021/07/07 07:27:21;;;;;;;1.92;1.25;;;24.70;47.40;;;;;;5002763;28;20049;-62
2021/07/07 07:29:47;;;;;;;2.78;1.48;;;24.70;47.40;;;;;;4995643;28;20296;-62
2021/07/07 07:32:13;;;;;;;2.47;1.20;;;24.70;47.40;;;;;;4996358;28;20034;-60
2021/07/07 07:34:39;;;;;;;2.00;1.00;;;24.70;47.40;;;;;;5020738;28;20061;-60
2021/07/07 07:37:06;;;;;;;1.80;1.10;;;24.70;47.40;;;;;;5020501;28;20030;-61
2021/07/07 07:40:10;;;;;;;2.70;1.10;;;24.70;47.40;;;;;;4995076;28;20057;-63
2021/07/07 07:42:26;;;;;;;1.90;0.80;;;24.70;47.40;;;;;;5016121;28;20073;-61
2021/07/07 07:44:52;;;;;;;3.03;1.15;;;24.70;47.40;;;;;;5033324;28;20508;-63
2021/07/07 07:47:18;;;;;;;2.33;0.75;;;24.70;47.40;;;;;;5020609;28;20064;-62
2021/07/07 07:49:44;;;;;;;0.93;0.68;;;24.70;48.00;;;;;;5029902;28;20363;-61
2021/07/07 07:52:10;;;;;;;1.77;0.85;;;24.80;47.40;;;;;;5008730;28;20033;-60
2021/07/07 07:54:36;;;;;;;2.75;1.00;;;24.70;47.30;;;;;;4996451;28;20073;-60
2021/07/07 07:57:03;;;;;;;1.65;0.70;;;24.80;47.30;;;;;;5033086;28;20060;-62
2021/07/07 07:59:29;;;;;;;1.73;0.73;;;24.80;47.20;;;;;;5034402;28;20045;-62
2021/07/07 08:01:55;;;;;;;1.83;0.90;;;24.80;47.10;;;;;;5023616;28;20033;-62
2021/07/07 08:04:20;;;;;;;1.83;0.70;;;24.80;47.10;;;;;;5021329;28;20034;-62
2021/07/07 08:06:47;;;;;;;1.80;0.55;;;24.80;47.10;;;;;;5003985;28;20034;-61
2021/07/07 08:09:13;;;;;;;2.03;0.63;;;24.80;47.00;;;;;;4996379;28;20400;-63
2021/07/07 08:11:40;;;;;;;1.70;0.73;;;24.80;47.00;;;;;;5013151;28;20042;-59
2021/07/07 08:14:06;;;;;;;2.08;0.80;;;24.80;47.00;;;;;;5014903;28;20433;-58
2021/07/07 08:16:32;;;;;;;1.10;0.50;;;24.80;47.00;;;;;;5003117;28;20074;-63
2021/07/07 08:18:58;;;;;;;1.70;0.60;;;24.80;46.90;;;;;;5017153;28;20040;-61
2021/07/07 08:21:24;;;;;;;0.98;0.40;;;24.80;46.90;;;;;;5036697;28;20445;-61
2021/07/07 08:23:50;;;;;;;1.90;0.80;;;24.80;46.80;;;;;;5036568;28;20037;-62
2021/07/07 08:26:16;;;;;;;1.33;0.65;;;24.90;46.90;;;;;;5018885;28;20045;-62
2021/07/07 08:28:42;;;;;;;1.40;0.70;;;24.90;46.80;;;;;;5027940;28;20040;-61
2021/07/07 08:31:07;;;;;;;1.10;0.60;;;24.80;46.70;;;;;;5037979;28;20029;-61
2021/07/07 08:33:36;;;;;;;1.58;0.70;;;24.90;46.80;;;;;;5026925;28;20030;-61
2021/07/07 08:36:02;;;;;;;1.48;0.50;;;24.90;46.70;;;;;;5029945;28;20025;-57
2021/07/07 08:38:28;;;;;;;1.65;0.60;;;24.90;46.70;;;;;;5025312;28;20346;-60
2021/07/07 08:40:53;;;;;;;1.98;0.80;;;24.90;46.60;;;;;;5016690;28;20141;-59
2021/07/07 08:43:19;;;;;;;1.27;0.60;;;24.90;46.50;;;;;;5023765;28;20021;-58
2021/07/07 08:45:45;;;;;;;1.85;0.50;;;24.90;46.50;;;;;;5026589;28;20025;-59
2021/07/07 08:48:11;;;;;;;1.70;0.50;;;24.90;46.50;;;;;;5036027;28;20101;-64
2021/07/07 08:50:37;;;;;;;1.55;0.60;;;24.90;46.40;;;;;;5037220;28;20037;-61
2021/07/07 08:53:06;;;;;;;1.02;0.50;;;25.00;46.40;;;;;;5037410;28;20038;-58
2021/07/07 08:55:32;;;;;;;1.58;0.70;;;25.00;46.40;;;;;;5036089;28;20045;-58
2021/07/07 08:57:59;;;;;;;2.45;0.70;;;25.00;46.40;;;;;;5037179;28;20033;-61
2021/07/07 09:00:33;;;;;;;0.60;0.43;;;25.00;46.30;;;;;;5029491;28;20388;-60
2021/07/07 09:03:13;;;;;;;1.25;0.50;;;25.00;46.30;;;;;;5036581;28;20026;-56
2021/07/07 09:06:03;;;;;;;2.03;0.50;;;25.00;46.20;;;;;;5028848;28;20038;-61
2021/07/07 09:08:30;;;;;;;1.02;0.50;;;25.00;46.20;;;;;;4996665;28;20358;-60
2021/07/07 09:11:13;;;;;;;1.00;0.50;;;25.00;46.30;;;;;;5016837;28;20037;-61
2021/07/07 09:13:39;;;;;;;0.43;0.40;;;25.00;46.30;;;;;;5016044;28;20069;-61
2021/07/07 09:16:10;;;;;;;1.13;0.70;;;25.00;46.30;;;;;;5022032;28;20365;-61
2021/07/07 09:18:36;;;;;;;1.58;0.60;;;25.00;46.30;;;;;;5003986;28;20029;-60
2021/07/07 09:21:03;;;;;;;2.03;0.65;;;25.00;46.30;;;;;;5025527;28;20116;-61
2021/07/07 09:23:30;;;;;;;1.63;0.60;;;25.00;46.20;;;;;;5026862;28;20018;-60
2021/07/07 09:26:02;;;;;;;2.28;0.75;;;25.00;46.20;;;;;;5034172;28;20103;-62
2021/07/07 09:28:37;;;;;;;1.58;0.63;;;25.00;46.20;;;;;;5029402;28;20515;-61
2021/07/07 09:31:26;;;;;;;1.25;0.60;;;25.00;46.10;;;;;;5015927;28;20041;-63
2021/07/07 09:33:52;;;;;;;1.17;0.60;;;25.10;46.10;;;;;;5016608;28;20030;-61
2021/07/07 09:36:25;;;;;;;2.97;0.95;;;25.00;45.90;;;;;;5024955;28;20396;-63
2021/07/07 09:38:53;;;;;;;1.80;0.60;;;25.10;45.90;;;;;;5036572;28;20415;-60
2021/07/07 09:41:20;;;;;;;0.68;0.35;;;25.10;45.80;;;;;;5029710;28;20319;-63
2021/07/07 09:43:50;;;;;;;1.75;0.63;;;25.10;46.30;;;;;;5036618;28;20040;-62
2021/07/07 09:46:18;;;;;;;0.98;0.50;;;25.10;45.60;;;;;;5029283;28;20117;-60
2021/07/07 09:48:45;;;;;;;0.80;0.43;;;25.10;45.50;;;;;;5034385;28;20033;-59
2021/07/07 09:51:10;;;;;;;0.77;0.50;;;25.10;45.40;;;;;;5035607;28;20033;-61
2021/07/07 09:53:36;;;;;;;1.88;0.60;;;25.10;45.30;;;;;;5035792;28;20030;-63
2021/07/07 09:56:03;;;;;;;2.42;1.00;;;25.10;45.20;;;;;;5036218;28;20033;-60
2021/07/07 09:58:30;;;;;;;2.28;0.52;;;25.10;45.00;;;;;;5018434;28;20100;-62
2021/07/07 10:00:56;;;;;;;1.65;0.70;;;25.10;45.00;;;;;;5027931;28;20471;-63
2021/07/07 10:03:23;;;;;;;0.90;0.60;;;25.20;44.90;;;;;;5034960;28;20052;-61
2021/07/07 10:05:51;;;;;;;2.20;0.60;;;25.20;44.80;;;;;;5026348;28;20033;-60
2021/07/07 10:08:19;;;;;;;1.17;0.60;;;25.20;44.70;;;;;;5016821;28;20049;-62
2021/07/07 10:10:46;;;;;;;1.05;0.40;;;25.20;44.70;;;;;;5025586;28;20393;-62
2021/07/07 10:13:13;;;;;;;1.73;0.55;;;25.20;44.50;;;;;;5035720;28;20033;-61
2021/07/07 10:15:40;;;;;;;0.70;0.50;;;25.20;44.50;;;;;;5034205;28;20097;-60
2021/07/07 10:18:07;;;;;;;1.05;0.50;;;25.20;44.50;;;;;;5036035;28;20108;-60
2021/07/07 10:20:35;;;;;;;0.68;0.45;;;25.20;44.50;;;;;;5025601;28;20037;-59
2021/07/07 10:23:03;;;;;;;1.67;0.60;;;25.20;44.40;;;;;;5033898;28;20036;-61
2021/07/07 10:25:31;;;;;;;1.63;0.73;;;25.20;44.40;;;;;;5030431;28;20096;-61
2021/07/07 10:28:09;;;;;;;1.80;0.50;;;25.20;44.40;;;;;;5015977;28;20346;-62
2021/07/07 10:30:50;;;;;;;1.95;0.88;;;25.20;44.40;;;;;;5032609;28;20455;-62
2021/07/07 10:33:16;;;;;;;0.98;0.40;;;25.30;44.50;;;;;;5035222;28;20043;-60
2021/07/07 10:35:42;;;;;;;1.10;0.57;;;25.20;44.40;;;;;;5026907;28;20152;-61
2021/07/07 10:38:08;;;;;;;0.82;0.50;;;25.30;44.50;;;;;;5025893;28;20395;-64
2021/07/07 10:40:44;;;;;;;1.08;0.50;;;25.20;44.30;;;;;;5018410;28;20055;-62
2021/07/07 10:43:25;;;;;;;1.60;0.55;;;25.20;44.20;;;;;;5025166;28;20033;-63
2021/07/07 10:45:51;;;;;;;1.05;0.52;;;25.30;44.20;;;;;;5026347;28;20056;-61
2021/07/07 10:48:32;;;;;;;1.77;0.60;;;25.20;44.20;;;;;;5023493;28;20523;-62
2021/07/07 10:51:09;;;;;;;0.80;0.50;;;25.30;44.20;;;;;;5024148;28;20064;-40
2021/07/07 10:53:36;;;;;;;1.02;0.50;;;25.20;44.40;;;;;;5016406;28;20430;-58
2021/07/07 10:56:05;;;;;;;2.90;1.00;;;25.30;44.50;;;;;;5027579;28;20095;-62
2021/07/07 10:58:36;;;;;;;1.80;0.80;;;25.30;44.60;;;;;;5020176;28;20448;-60
2021/07/07 11:01:37;;;;;;;0.95;0.50;;;25.30;44.60;;;;;;5019283;28;20029;-60
2021/07/07 11:04:04;;;;;;;1.77;0.68;;;25.30;44.60;;;;;;5013285;28;20037;-60
2021/07/07 11:06:38;;;;;;;1.00;0.50;;;25.30;44.60;;;;;;5018070;28;20469;-63
2021/07/07 11:09:11;;;;;;;0.75;0.60;;;25.30;44.60;;;;;;5015770;28;20055;-61
2021/07/07 11:11:39;;;;;;;2.10;0.52;;;25.30;44.60;;;;;;5023922;28;20040;-62
2021/07/07 11:14:18;;;;;;;1.27;0.50;;;25.30;44.70;;;;;;5020144;28;20337;-60
2021/07/07 11:16:50;;;;;;;1.17;0.65;;;25.40;44.80;;;;;;5020775;28;20118;-62
2021/07/07 11:19:49;;;;;;;1.00;0.50;;;25.40;44.80;;;;;;5023062;28;20056;-61
2021/07/07 11:22:17;;;;;;;1.77;0.63;;;25.40;44.90;;;;;;5016991;28;20060;-60
2021/07/07 11:24:48;;;;;;;1.35;0.65;;;25.40;44.90;;;;;;5024824;28;20033;-58
2021/07/07 11:27:15;;;;;;;2.00;0.60;;;25.40;44.90;;;;;;5018559;28;20049;-60
2021/07/07 11:29:41;;;;;;;1.88;0.60;;;25.40;44.90;;;;;;5027707;28;20037;-58
2021/07/07 11:32:27;;;;;;;2.03;0.73;;;25.40;44.90;;;;;;5014969;28;20022;-62
2021/07/07 11:34:56;;;;;;;1.15;0.60;;;25.40;44.80;;;;;;5021614;28;20083;-59
2021/07/07 11:37:24;;;;;;;1.10;0.60;;;25.40;44.80;;;;;;5018353;28;20025;-60
2021/07/07 11:40:06;;;;;;;1.10;0.40;;;25.40;44.80;;;;;;5031508;28;20373;-57
2021/07/07 11:42:33;;;;;;;0.70;0.45;;;25.40;44.80;;;;;;5018397;28;20037;-59
2021/07/07 11:44:59;;;;;;;0.85;0.40;;;25.40;44.80;;;;;;5026258;28;20053;-56
2021/07/07 11:47:33;;;;;;;0.70;0.47;;;25.40;44.80;;;;;;5026931;28;20417;-55
2021/07/07 11:50:05;;;;;;;1.02;0.50;;;25.40;44.80;;;;;;5024029;28;20462;-58
2021/07/07 11:52:31;;;;;;;0.68;0.43;;;25.40;44.70;;;;;;5031887;28;20029;-60
2021/07/07 11:54:59;;;;;;;0.63;0.40;;;25.50;44.70;;;;;;5023577;28;20025;-61
2021/07/07 11:57:28;;;;;;;0.65;0.50;;;25.40;44.50;;;;;;5014665;28;20037;-61
2021/07/07 11:59:54;;;;;;;0.60;0.35;;;25.50;44.50;;;;;;5026909;28;20442;-60
2021/07/07 12:02:21;;;;;;;1.08;0.50;;;25.50;44.50;;;;;;5016545;28;20140;-61
2021/07/07 12:04:47;;;;;;;1.23;0.52;;;25.50;44.40;;;;;;5017340;28;20116;-59
2021/07/07 12:07:13;;;;;;;2.15;0.50;;;25.50;44.40;;;;;;5024133;28;20120;-59
2021/07/07 12:09:39;;;;;;;0.73;0.47;;;25.50;44.50;;;;;;5025176;28;20029;-58
2021/07/07 12:12:09;;;;;;;0.68;0.45;;;25.50;44.60;;;;;;5028569;28;20353;-56
2021/07/07 12:14:39;;;;;;;0.88;0.50;;;25.60;44.70;;;;;;5013920;28;20105;-60
2021/07/07 12:17:06;;;;;;;1.35;0.60;;;25.50;44.70;;;;;;5026082;28;20175;-60
2021/07/07 12:19:33;;;;;;;0.68;0.52;;;25.60;44.90;;;;;;5018282;28;20369;-58
2021/07/07 12:22:04;;;;;;;0.55;0.50;;;25.60;44.90;;;;;;5022531;28;20038;-61
2021/07/07 12:24:31;;;;;;;1.27;0.52;;;25.60;44.90;;;;;;5025534;28;20026;-66
2021/07/07 12:27:00;;;;;;;0.50;0.47;;;25.60;44.90;;;;;;5022182;28;20099;-61
2021/07/07 12:29:28;;;;;;;1.17;0.45;;;25.60;44.90;;;;;;4997927;28;20331;-59
2021/07/07 12:31:59;;;;;;;0.57;0.47;;;25.70;44.90;;;;;;5001060;28;20109;-58
2021/07/07 12:34:49;;;;;;;0.40;0.40;;;25.70;44.90;;;;;;5012425;28;20084;-59
2021/07/07 12:37:16;;;;;;;3.08;0.43;;;25.70;44.80;;;;;;5028478;28;20045;-57
2021/07/07 12:39:53;;;;;;;0.73;0.50;;;25.70;44.70;;;;;;5033481;28;20029;-59
2021/07/07 12:42:34;;;;;;;0.68;0.30;;;25.80;44.70;;;;;;5032218;28;20107;-59
2021/07/07 12:45:13;;;;;;;0.70;0.40;;;25.80;44.50;;;;;;5033493;28;20354;-60
2021/07/07 12:47:40;;;;;;;0.80;0.43;;;25.80;44.40;;;;;;5012719;28;20029;-63
2021/07/07 12:50:19;;;;;;;0.65;0.50;;;25.80;44.30;;;;;;5025736;28;20048;-58